sensor_id;sensor_type;location;lat;lon;timestamp;pressure;altitude;pressure_sealevel;temperature;humidity
9462;BME280;4769;42.660;23.262;2023-05-21T00:01:48;93861.69;;;15.71;100.00
9462;BME280;4769;42.660;23.262;2023-05-21T00:04:13;93862.16;;;15.45;100.00
9462;BME280;4769;42.660;23.262;2023-05-21T00:06:42;93866.63;;;15.54;100.00
9462;BME280;4769;42.660;23.262;2023-05-21T00:09:07;93855.31;;;15.34;100.00
9462;BME280;4769;42.660;23.262;2023-05-21T00:11:33;93853.47;;;15.24;100.00
9462;BME280;4769;42.660;23.262;2023-05-21T00:13:59;93852.16;;;15.22;100.00
9462;BME280;4769;42.660;23.262;2023-05-21T00:16:24;93858.28;;;15.22;100.00
9462;BME280;4769;42.660;23.262;2023-05-21T00:18:50;93849.78;;;15.20;100.00
9462;BME280;4769;42.660;23.262;2023-05-21T00:21:16;93858.84;;;15.14;100.00
9462;BME280;4769;42.660;23.262;2023-05-21T00:23:45;93847.47;;;15.09;100.00
9462;BME280;4769;42.660;23.262;2023-05-21T00:26:10;93850.94;;;15.04;100.00
9462;BME280;4769;42.660;23.262;2023-05-21T00:28:36;93848.78;;;15.16;100.00
9462;BME280;4769;42.660;23.262;2023-05-21T00:31:02;93844.97;;;15.27;100.00
9462;BME280;4769;42.660;23.262;2023-05-21T00:33:28;93844.16;;;15.37;100.00
9462;BME280;4769;42.660;23.262;2023-05-21T00:35:53;93846.78;;;15.42;100.00
9462;BME280;4769;42.660;23.262;2023-05-21T00:38:19;93841.78;;;15.35;100.00
9462;BME280;4769;42.660;23.262;2023-05-21T00:40:47;93836.97;;;15.32;100.00
9462;BME280;4769;42.660;23.262;2023-05-21T00:43:13;93836.50;;;15.25;100.00
9462;BME280;4769;42.660;23.262;2023-05-21T00:45:39;93842.03;;;15.34;100.00
9462;BME280;4769;42.660;23.262;2023-05-21T00:48:05;93829.41;;;15.11;100.00
9462;BME280;4769;42.660;23.262;2023-05-21T00:50:31;93833.38;;;15.13;100.00
9462;BME280;4769;42.660;23.262;2023-05-21T00:52:57;93837.09;;;15.12;100.00
9462;BME280;4769;42.660;23.262;2023-05-21T00:55:23;93835.25;;;15.08;100.00
9462;BME280;4769;42.660;23.262;2023-05-21T00:57:52;93831.84;;;15.02;100.00
9462;BME280;4769;42.660;23.262;2023-05-21T01:00:18;93825.72;;;15.07;100.00
9462;BME280;4769;42.660;23.262;2023-05-21T01:02:44;93831.28;;;15.05;100.00
9462;BME280;4769;42.660;23.262;2023-05-21T01:05:10;93822.50;;;15.10;100.00
9462;BME280;4769;42.660;23.262;2023-05-21T01:07:38;93823.09;;;15.02;100.00
9462;BME280;4769;42.660;23.262;2023-05-21T01:10:06;93840.09;;;15.01;100.00
9462;BME280;4769;42.660;23.262;2023-05-21T01:12:37;93824.41;;;15.04;100.00
9462;BME280;4769;42.660;23.262;2023-05-21T01:15:07;93818.00;;;15.05;100.00
9462;BME280;4769;42.660;23.262;2023-05-21T01:17:34;93816.66;;;15.08;100.00
9462;BME280;4769;42.660;23.262;2023-05-21T01:20:00;93820.13;;;15.08;100.00
9462;BME280;4769;42.660;23.262;2023-05-21T01:22:28;93807.66;;;15.04;100.00
9462;BME280;4769;42.660;23.262;2023-05-21T01:24:58;93818.00;;;15.05;100.00
9462;BME280;4769;42.660;23.262;2023-05-21T01:27:24;93820.19;;;14.98;100.00
9462;BME280;4769;42.660;23.262;2023-05-21T01:29:50;93813.81;;;14.99;100.00
9462;BME280;4769;42.660;23.262;2023-05-21T01:32:21;93822.31;;;14.96;100.00
9462;BME280;4769;42.660;23.262;2023-05-21T01:34:55;93821.78;;;14.94;100.00
9462;BME280;4769;42.660;23.262;2023-05-21T01:37:29;93815.69;;;14.94;100.00
9462;BME280;4769;42.660;23.262;2023-05-21T01:40:01;93818.34;;;14.94;100.00
9462;BME280;4769;42.660;23.262;2023-05-21T01:42:30;93805.06;;;14.94;100.00
9462;BME280;4769;42.660;23.262;2023-05-21T01:44:59;93808.75;;;14.98;100.00
9462;BME280;4769;42.660;23.262;2023-05-21T01:47:27;93802.41;;;14.94;100.00
9462;BME280;4769;42.660;23.262;2023-05-21T01:49:55;93801.34;;;15.00;100.00
9462;BME280;4769;42.660;23.262;2023-05-21T01:52:21;93812.72;;;15.00;100.00
9462;BME280;4769;42.660;23.262;2023-05-21T01:54:47;93819.38;;;14.98;100.00
9462;BME280;4769;42.660;23.262;2023-05-21T01:57:15;93815.41;;;14.95;100.00
9462;BME280;4769;42.660;23.262;2023-05-21T01:59:41;93803.28;;;14.84;100.00
9462;BME280;4769;42.660;23.262;2023-05-21T02:02:07;93806.47;;;14.81;100.00
9462;BME280;4769;42.660;23.262;2023-05-21T02:04:32;93805.38;;;14.82;100.00
9462;BME280;4769;42.660;23.262;2023-05-21T02:06:58;93805.19;;;14.74;100.00
9462;BME280;4769;42.660;23.262;2023-05-21T02:09:24;93797.75;;;14.71;100.00
9462;BME280;4769;42.660;23.262;2023-05-21T02:11:50;93797.47;;;14.72;100.00
9462;BME280;4769;42.660;23.262;2023-05-21T02:14:18;93801.22;;;14.66;100.00
9462;BME280;4769;42.660;23.262;2023-05-21T02:16:43;93798.91;;;14.50;100.00
9462;BME280;4769;42.660;23.262;2023-05-21T02:19:09;93797.09;;;14.40;100.00
9462;BME280;4769;42.660;23.262;2023-05-21T02:21:35;93794.72;;;14.29;100.00
9462;BME280;4769;42.660;23.262;2023-05-21T02:24:01;93798.97;;;14.40;100.00
9462;BME280;4769;42.660;23.262;2023-05-21T02:26:26;93798.66;;;14.41;100.00
9462;BME280;4769;42.660;23.262;2023-05-21T02:28:53;93781.97;;;14.41;100.00
9462;BME280;4769;42.660;23.262;2023-05-21T02:31:21;93789.44;;;14.29;100.00
9462;BME280;4769;42.660;23.262;2023-05-21T02:33:47;93790.75;;;14.31;100.00
9462;BME280;4769;42.660;23.262;2023-05-21T02:36:12;93793.66;;;14.35;100.00
9462;BME280;4769;42.660;23.262;2023-05-21T02:38:38;93790.72;;;14.41;100.00
9462;BME280;4769;42.660;23.262;2023-05-21T02:41:04;93784.09;;;14.44;100.00
9462;BME280;4769;42.660;23.262;2023-05-21T02:43:30;93788.84;;;14.47;100.00
9462;BME280;4769;42.660;23.262;2023-05-21T02:45:55;93786.78;;;14.24;100.00
9462;BME280;4769;42.660;23.262;2023-05-21T02:48:24;93789.16;;;14.30;100.00
9462;BME280;4769;42.660;23.262;2023-05-21T02:50:50;93788.38;;;14.19;100.00
9462;BME280;4769;42.660;23.262;2023-05-21T02:53:15;93778.34;;;13.96;100.00
9462;BME280;4769;42.660;23.262;2023-05-21T02:55:41;93790.03;;;13.90;100.00
9462;BME280;4769;42.660;23.262;2023-05-21T02:58:07;93779.13;;;14.02;100.00
9462;BME280;4769;42.660;23.262;2023-05-21T03:00:33;93781.75;;;14.12;100.00
9462;BME280;4769;42.660;23.262;2023-05-21T03:02:58;93786.53;;;14.15;100.00
9462;BME280;4769;42.660;23.262;2023-05-21T03:05:27;93788.13;;;14.11;100.00
9462;BME280;4769;42.660;23.262;2023-05-21T03:07:52;93783.06;;;14.14;100.00
9462;BME280;4769;42.660;23.262;2023-05-21T03:10:18;93790.00;;;14.21;100.00
9462;BME280;4769;42.660;23.262;2023-05-21T03:12:44;93788.69;;;14.23;100.00
9462;BME280;4769;42.660;23.262;2023-05-21T03:15:10;93797.41;;;14.24;100.00
9462;BME280;4769;42.660;23.262;2023-05-21T03:17:36;93791.84;;;14.25;100.00
9462;BME280;4769;42.660;23.262;2023-05-21T03:20:01;93796.84;;;14.32;100.00
9462;BME280;4769;42.660;23.262;2023-05-21T03:22:30;93797.66;;;14.27;100.00
9462;BME280;4769;42.660;23.262;2023-05-21T03:24:56;93802.94;;;14.17;100.00
9462;BME280;4769;42.660;23.262;2023-05-21T03:27:24;93792.66;;;14.21;100.00
9462;BME280;4769;42.660;23.262;2023-05-21T03:29:50;93801.63;;;14.14;100.00
9462;BME280;4769;42.660;23.262;2023-05-21T03:32:15;93808.81;;;14.19;100.00
9462;BME280;4769;42.660;23.262;2023-05-21T03:34:41;93810.16;;;13.96;100.00
9462;BME280;4769;42.660;23.262;2023-05-21T03:37:07;93813.31;;;14.13;100.00
9462;BME280;4769;42.660;23.262;2023-05-21T03:39:36;93802.47;;;14.20;100.00
9462;BME280;4769;42.660;23.262;2023-05-21T03:42:01;93799.88;;;13.65;100.00
9462;BME280;4769;42.660;23.262;2023-05-21T03:44:27;93801.47;;;13.76;100.00
9462;BME280;4769;42.660;23.262;2023-05-21T03:46:53;93806.19;;;13.94;100.00
9462;BME280;4769;42.660;23.262;2023-05-21T03:49:19;93796.41;;;13.79;100.00
9462;BME280;4769;42.660;23.262;2023-05-21T03:51:44;93808.28;;;14.07;100.00
9462;BME280;4769;42.660;23.262;2023-05-21T03:54:10;93804.03;;;14.26;100.00
9462;BME280;4769;42.660;23.262;2023-05-21T03:56:38;93806.09;;;14.39;100.00
9462;BME280;4769;42.660;23.262;2023-05-21T03:59:04;93806.59;;;14.56;100.00
9462;BME280;4769;42.660;23.262;2023-05-21T04:01:30;93802.03;;;14.62;100.00
9462;BME280;4769;42.660;23.262;2023-05-21T04:03:56;93803.88;;;14.66;100.00
9462;BME280;4769;42.660;23.262;2023-05-21T04:06:21;93798.53;;;14.76;100.00
9462;BME280;4769;42.660;23.262;2023-05-21T04:08:47;93804.66;;;14.72;100.00
9462;BME280;4769;42.660;23.262;2023-05-21T04:11:13;93797.22;;;14.74;100.00
9462;BME280;4769;42.660;23.262;2023-05-21T04:13:43;93791.66;;;14.70;100.00
9462;BME280;4769;42.660;23.262;2023-05-21T04:16:09;93797.44;;;14.82;100.00
9462;BME280;4769;42.660;23.262;2023-05-21T04:18:34;93798.94;;;14.98;100.00
9462;BME280;4769;42.660;23.262;2023-05-21T04:21:00;93806.31;;;15.11;100.00
9462;BME280;4769;42.660;23.262;2023-05-21T04:23:27;93800.47;;;15.09;100.00
9462;BME280;4769;42.660;23.262;2023-05-21T04:25:53;93798.34;;;15.06;100.00
9462;BME280;4769;42.660;23.262;2023-05-21T04:28:19;93797.31;;;15.07;100.00
9462;BME280;4769;42.660;23.262;2023-05-21T04:30:49;93795.56;;;14.88;100.00
9462;BME280;4769;42.660;23.262;2023-05-21T04:33:15;93805.09;;;14.89;100.00
9462;BME280;4769;42.660;23.262;2023-05-21T04:35:45;93801.03;;;15.01;100.00
9462;BME280;4769;42.660;23.262;2023-05-21T04:38:10;93796.69;;;15.15;100.00
9462;BME280;4769;42.660;23.262;2023-05-21T04:40:36;93804.63;;;15.25;100.00
9462;BME280;4769;42.660;23.262;2023-05-21T04:43:02;93797.97;;;15.28;100.00
9462;BME280;4769;42.660;23.262;2023-05-21T04:45:28;93794.69;;;15.41;100.00
9462;BME280;4769;42.660;23.262;2023-05-21T04:47:56;93804.50;;;15.45;100.00
9462;BME280;4769;42.660;23.262;2023-05-21T04:50:22;93803.94;;;15.53;100.00
9462;BME280;4769;42.660;23.262;2023-05-21T04:52:48;93794.59;;;15.56;100.00
9462;BME280;4769;42.660;23.262;2023-05-21T04:55:13;93790.28;;;15.60;100.00
9462;BME280;4769;42.660;23.262;2023-05-21T04:57:39;93800.00;;;15.74;100.00
9462;BME280;4769;42.660;23.262;2023-05-21T05:00:07;93801.00;;;15.83;100.00
9462;BME280;4769;42.660;23.262;2023-05-21T05:02:32;93799.09;;;15.89;100.00
9462;BME280;4769;42.660;23.262;2023-05-21T05:05:01;93795.63;;;15.88;100.00
9462;BME280;4769;42.660;23.262;2023-05-21T05:07:26;93800.91;;;15.93;100.00
9462;BME280;4769;42.660;23.262;2023-05-21T05:09:52;93795.50;;;16.03;100.00
9462;BME280;4769;42.660;23.262;2023-05-21T05:12:18;93802.59;;;16.13;100.00
9462;BME280;4769;42.660;23.262;2023-05-21T05:14:43;93797.31;;;16.08;100.00
9462;BME280;4769;42.660;23.262;2023-05-21T05:17:09;93789.50;;;16.16;100.00
9462;BME280;4769;42.660;23.262;2023-05-21T05:19:35;93795.06;;;16.20;100.00
9462;BME280;4769;42.660;23.262;2023-05-21T05:22:04;93797.44;;;16.21;100.00
9462;BME280;4769;42.660;23.262;2023-05-21T05:24:29;93790.25;;;16.22;100.00
9462;BME280;4769;42.660;23.262;2023-05-21T05:26:55;93798.31;;;16.40;100.00
9462;BME280;4769;42.660;23.262;2023-05-21T05:29:21;93789.59;;;16.58;100.00
9462;BME280;4769;42.660;23.262;2023-05-21T05:31:46;93792.16;;;16.45;100.00
9462;BME280;4769;42.660;23.262;2023-05-21T05:34:12;93783.38;;;16.44;100.00
9462;BME280;4769;42.660;23.262;2023-05-21T05:36:38;93784.47;;;16.43;100.00
9462;BME280;4769;42.660;23.262;2023-05-21T05:39:07;93800.09;;;16.50;100.00
9462;BME280;4769;42.660;23.262;2023-05-21T05:41:32;93798.72;;;16.52;100.00
9462;BME280;4769;42.660;23.262;2023-05-21T05:43:58;93785.56;;;16.61;100.00
9462;BME280;4769;42.660;23.262;2023-05-21T05:46:27;93789.16;;;16.93;100.00
9462;BME280;4769;42.660;23.262;2023-05-21T05:48:53;93779.44;;;17.21;100.00
9462;BME280;4769;42.660;23.262;2023-05-21T05:51:19;93783.47;;;17.18;99.03
9462;BME280;4769;42.660;23.262;2023-05-21T05:53:48;93785.34;;;17.18;98.55
9462;BME280;4769;42.660;23.262;2023-05-21T05:56:16;93791.78;;;17.35;97.43
9462;BME280;4769;42.660;23.262;2023-05-21T05:58:42;93785.31;;;17.41;96.32
9462;BME280;4769;42.660;23.262;2023-05-21T06:01:07;93783.66;;;17.45;95.97
9462;BME280;4769;42.660;23.262;2023-05-21T06:03:33;93783.38;;;17.47;95.58
9462;BME280;4769;42.660;23.262;2023-05-21T06:05:59;93785.34;;;17.55;94.37
9462;BME280;4769;42.660;23.262;2023-05-21T06:08:24;93780.69;;;17.79;93.61
9462;BME280;4769;42.660;23.262;2023-05-21T06:10:50;93778.88;;;17.93;92.11
9462;BME280;4769;42.660;23.262;2023-05-21T06:13:19;93788.66;;;18.11;90.67
9462;BME280;4769;42.660;23.262;2023-05-21T06:15:44;93769.31;;;18.32;90.15
9462;BME280;4769;42.660;23.262;2023-05-21T06:18:10;93768.88;;;18.57;88.19
9462;BME280;4769;42.660;23.262;2023-05-21T06:20:36;93774.22;;;18.84;85.95
9462;BME280;4769;42.660;23.262;2023-05-21T06:23:01;93776.97;;;18.93;84.47
9462;BME280;4769;42.660;23.262;2023-05-21T06:25:27;93768.13;;;19.06;84.39
9462;BME280;4769;42.660;23.262;2023-05-21T06:27:53;93771.13;;;19.40;82.27
9462;BME280;4769;42.660;23.262;2023-05-21T06:30:21;93770.91;;;19.72;81.61
9462;BME280;4769;42.660;23.262;2023-05-21T06:32:47;93767.31;;;19.76;74.59
9462;BME280;4769;42.660;23.262;2023-05-21T06:35:13;93766.16;;;19.91;69.87
9462;BME280;4769;42.660;23.262;2023-05-21T06:37:38;93762.25;;;19.97;67.93
9462;BME280;4769;42.660;23.262;2023-05-21T06:40:08;93760.25;;;20.02;68.24
9462;BME280;4769;42.660;23.262;2023-05-21T06:42:34;93762.31;;;20.05;67.19
9462;BME280;4769;42.660;23.262;2023-05-21T06:45:00;93768.88;;;19.99;66.93
9462;BME280;4769;42.660;23.262;2023-05-21T06:47:28;93763.88;;;20.06;65.94
9462;BME280;4769;42.660;23.262;2023-05-21T06:49:54;93755.50;;;20.21;65.65
9462;BME280;4769;42.660;23.262;2023-05-21T06:52:20;93764.41;;;19.86;66.15
9462;BME280;4769;42.660;23.262;2023-05-21T06:54:45;93751.13;;;19.81;66.46
9462;BME280;4769;42.660;23.262;2023-05-21T06:57:13;93752.59;;;19.65;67.13
9462;BME280;4769;42.660;23.262;2023-05-21T06:59:39;93754.69;;;19.46;68.12
9462;BME280;4769;42.660;23.262;2023-05-21T07:02:05;93759.41;;;19.71;67.76
9462;BME280;4769;42.660;23.262;2023-05-21T07:04:33;93748.94;;;20.05;66.21
9462;BME280;4769;42.660;23.262;2023-05-21T07:06:59;93743.75;;;20.39;65.88
9462;BME280;4769;42.660;23.262;2023-05-21T07:09:25;93748.69;;;20.93;64.18
9462;BME280;4769;42.660;23.262;2023-05-21T07:11:50;93743.84;;;21.38;64.71
9462;BME280;4769;42.660;23.262;2023-05-21T07:14:16;93739.91;;;21.52;61.81
9462;BME280;4769;42.660;23.262;2023-05-21T07:16:42;93742.59;;;21.44;61.18
9462;BME280;4769;42.660;23.262;2023-05-21T07:19:07;93756.16;;;21.64;59.81
9462;BME280;4769;42.660;23.262;2023-05-21T07:21:36;93741.97;;;21.72;59.58
9462;BME280;4769;42.660;23.262;2023-05-21T07:24:04;93746.97;;;21.99;58.34
9462;BME280;4769;42.660;23.262;2023-05-21T07:26:30;93746.31;;;22.11;59.75
9462;BME280;4769;42.660;23.262;2023-05-21T07:28:56;93740.63;;;22.12;59.29
9462;BME280;4769;42.660;23.262;2023-05-21T07:31:22;93750.44;;;22.00;59.18
9462;BME280;4769;42.660;23.262;2023-05-21T07:33:47;93743.56;;;22.45;57.61
9462;BME280;4769;42.660;23.262;2023-05-21T07:36:13;93744.78;;;22.56;54.87
9462;BME280;4769;42.660;23.262;2023-05-21T07:38:42;93752.72;;;22.81;54.59
9462;BME280;4769;42.660;23.262;2023-05-21T07:41:07;93744.59;;;22.90;53.91
9462;BME280;4769;42.660;23.262;2023-05-21T07:43:34;93751.34;;;22.75;53.12
9462;BME280;4769;42.660;23.262;2023-05-21T07:45:59;93746.03;;;22.58;52.85
9462;BME280;4769;42.660;23.262;2023-05-21T07:48:25;93753.63;;;22.56;52.99
9462;BME280;4769;42.660;23.262;2023-05-21T07:50:51;93741.28;;;22.55;53.08
9462;BME280;4769;42.660;23.262;2023-05-21T07:53:16;93739.50;;;22.97;52.84
9462;BME280;4769;42.660;23.262;2023-05-21T07:55:45;93733.06;;;23.18;51.38
9462;BME280;4769;42.660;23.262;2023-05-21T07:58:11;93736.22;;;23.20;50.96
9462;BME280;4769;42.660;23.262;2023-05-21T08:00:41;93747.44;;;22.93;53.05
9462;BME280;4769;42.660;23.262;2023-05-21T08:03:07;93739.53;;;22.88;50.63
9462;BME280;4769;42.660;23.262;2023-05-21T08:05:33;93745.97;;;22.75;51.33
9462;BME280;4769;42.660;23.262;2023-05-21T08:07:59;93748.81;;;22.24;52.52
9462;BME280;4769;42.660;23.262;2023-05-21T08:10:24;93745.75;;;22.43;52.24
9462;BME280;4769;42.660;23.262;2023-05-21T08:12:53;93740.69;;;22.41;52.73
9462;BME280;4769;42.660;23.262;2023-05-21T08:15:18;93738.66;;;22.47;50.61
9462;BME280;4769;42.660;23.262;2023-05-21T08:17:44;93729.00;;;22.37;50.63
9462;BME280;4769;42.660;23.262;2023-05-21T08:20:11;93742.34;;;22.25;51.16
9462;BME280;4769;42.660;23.262;2023-05-21T08:22:37;93739.16;;;22.78;48.86
9462;BME280;4769;42.660;23.262;2023-05-21T08:25:03;93739.97;;;23.28;47.58
9462;BME280;4769;42.660;23.262;2023-05-21T08:27:29;93736.19;;;23.49;44.14
9462;BME280;4769;42.660;23.262;2023-05-21T08:29:57;93737.66;;;23.38;42.40
9462;BME280;4769;42.660;23.262;2023-05-21T08:32:22;93743.72;;;23.06;42.95
9462;BME280;4769;42.660;23.262;2023-05-21T08:34:48;93751.59;;;22.82;43.38
9462;BME280;4769;42.660;23.262;2023-05-21T08:37:14;93745.28;;;22.87;42.98
9462;BME280;4769;42.660;23.262;2023-05-21T08:39:39;93741.09;;;22.98;43.43
9462;BME280;4769;42.660;23.262;2023-05-21T08:42:10;93745.28;;;22.87;41.54
9462;BME280;4769;42.660;23.262;2023-05-21T08:44:41;93749.78;;;22.66;41.48
9462;BME280;4769;42.660;23.262;2023-05-21T08:47:13;93752.34;;;22.91;42.03
9462;BME280;4769;42.660;23.262;2023-05-21T08:49:40;93754.75;;;23.42;42.39
9462;BME280;4769;42.660;23.262;2023-05-21T08:52:06;93748.75;;;23.57;41.83
9462;BME280;4769;42.660;23.262;2023-05-21T08:54:34;93737.84;;;23.74;39.89
9462;BME280;4769;42.660;23.262;2023-05-21T08:57:01;93731.25;;;23.51;40.60
9462;BME280;4769;42.660;23.262;2023-05-21T08:59:27;93747.09;;;23.85;41.11
9462;BME280;4769;42.660;23.262;2023-05-21T09:01:53;93741.09;;;24.33;41.66
9462;BME280;4769;42.660;23.262;2023-05-21T09:04:22;93750.88;;;24.38;40.12
9462;BME280;4769;42.660;23.262;2023-05-21T09:06:48;93747.19;;;24.10;41.42
9462;BME280;4769;42.660;23.262;2023-05-21T09:09:22;93743.16;;;24.04;41.03
9462;BME280;4769;42.660;23.262;2023-05-21T09:11:49;93734.09;;;24.20;40.35
9462;BME280;4769;42.660;23.262;2023-05-21T09:14:15;93737.88;;;24.07;41.90
9462;BME280;4769;42.660;23.262;2023-05-21T09:16:41;93745.72;;;23.79;42.78
9462;BME280;4769;42.660;23.262;2023-05-21T09:19:07;93737.44;;;23.52;43.36
9462;BME280;4769;42.660;23.262;2023-05-21T09:21:38;93741.81;;;23.56;44.21
9462;BME280;4769;42.660;23.262;2023-05-21T09:24:04;93744.56;;;23.68;45.84
9462;BME280;4769;42.660;23.262;2023-05-21T09:26:30;93736.84;;;23.79;43.92
9462;BME280;4769;42.660;23.262;2023-05-21T09:28:58;93740.47;;;23.83;43.09
9462;BME280;4769;42.660;23.262;2023-05-21T09:31:24;93744.66;;;24.13;42.61
9462;BME280;4769;42.660;23.262;2023-05-21T09:33:49;93739.25;;;25.18;41.45
9462;BME280;4769;42.660;23.262;2023-05-21T09:38:46;93733.88;;;24.94;37.25
9462;BME280;4769;42.660;23.262;2023-05-21T09:41:12;93726.81;;;24.33;35.55
9462;BME280;4769;42.660;23.262;2023-05-21T09:43:40;93727.69;;;24.13;35.99
9462;BME280;4769;42.660;23.262;2023-05-21T09:46:06;93724.50;;;24.43;34.73
9462;BME280;4769;42.660;23.262;2023-05-21T09:48:33;93727.34;;;25.31;33.65
9462;BME280;4769;42.660;23.262;2023-05-21T09:51:07;93737.50;;;24.29;33.64
9462;BME280;4769;42.660;23.262;2023-05-21T09:53:33;93730.50;;;24.73;34.23
9462;BME280;4769;42.660;23.262;2023-05-21T09:56:01;93736.78;;;25.13;34.59
9462;BME280;4769;42.660;23.262;2023-05-21T09:58:27;93718.31;;;25.51;33.45
9462;BME280;4769;42.660;23.262;2023-05-21T10:00:53;93729.28;;;25.97;32.25
9462;BME280;4769;42.660;23.262;2023-05-21T10:03:22;93716.63;;;26.13;31.23
9462;BME280;4769;42.660;23.262;2023-05-21T10:05:51;93723.84;;;26.09;31.74
9462;BME280;4769;42.660;23.262;2023-05-21T10:08:21;93725.47;;;25.59;32.44
9462;BME280;4769;42.660;23.262;2023-05-21T10:10:48;93717.56;;;26.64;31.19
9462;BME280;4769;42.660;23.262;2023-05-21T10:13:17;93709.19;;;26.69;30.28
9462;BME280;4769;42.660;23.262;2023-05-21T10:15:54;93718.34;;;26.80;30.00
9462;BME280;4769;42.660;23.262;2023-05-21T10:18:23;93711.00;;;26.65;31.18
9462;BME280;4769;42.660;23.262;2023-05-21T10:20:50;93713.09;;;26.71;30.86
9462;BME280;4769;42.660;23.262;2023-05-21T10:23:16;93708.00;;;27.16;30.22
9462;BME280;4769;42.660;23.262;2023-05-21T10:25:43;93706.53;;;27.19;29.51
9462;BME280;4769;42.660;23.262;2023-05-21T10:28:10;93708.16;;;27.77;29.84
9462;BME280;4769;42.660;23.262;2023-05-21T10:30:43;93704.19;;;27.71;30.35
9462;BME280;4769;42.660;23.262;2023-05-21T10:33:11;93707.47;;;27.99;29.41
9462;BME280;4769;42.660;23.262;2023-05-21T10:35:39;93700.94;;;27.46;30.21
9462;BME280;4769;42.660;23.262;2023-05-21T10:38:07;93693.31;;;28.69;29.55
9462;BME280;4769;42.660;23.262;2023-05-21T10:40:33;93698.06;;;28.98;29.76
9462;BME280;4769;42.660;23.262;2023-05-21T10:43:36;93690.94;;;28.04;31.22
9462;BME280;4769;42.660;23.262;2023-05-21T10:46:18;93700.22;;;27.15;31.52
9462;BME280;4769;42.660;23.262;2023-05-21T10:49:09;93702.97;;;26.84;32.86
9462;BME280;4769;42.660;23.262;2023-05-21T10:51:47;93704.91;;;26.99;31.08
9462;BME280;4769;42.660;23.262;2023-05-21T10:54:36;93697.53;;;26.99;31.29
9462;BME280;4769;42.660;23.262;2023-05-21T10:57:17;93693.16;;;26.76;31.75
9462;BME280;4769;42.660;23.262;2023-05-21T10:59:48;93702.63;;;25.96;32.76
9462;BME280;4769;42.660;23.262;2023-05-21T11:02:18;93685.38;;;26.00;35.07
9462;BME280;4769;42.660;23.262;2023-05-21T11:04:45;93702.69;;;25.44;34.88
9462;BME280;4769;42.660;23.262;2023-05-21T11:07:11;93696.00;;;25.54;34.13
9462;BME280;4769;42.660;23.262;2023-05-21T11:12:03;93694.28;;;25.10;38.05
9462;BME280;4769;42.660;23.262;2023-05-21T11:14:31;93706.47;;;24.68;37.62
9462;BME280;4769;42.660;23.262;2023-05-21T11:16:57;93696.41;;;24.44;40.16
9462;BME280;4769;42.660;23.262;2023-05-21T11:19:32;93695.00;;;23.81;40.65
9462;BME280;4769;42.660;23.262;2023-05-21T11:21:58;93694.44;;;24.09;43.15
9462;BME280;4769;42.660;23.262;2023-05-21T11:24:24;93698.13;;;23.92;41.90
9462;BME280;4769;42.660;23.262;2023-05-21T11:27:00;93692.78;;;24.04;41.24
9462;BME280;4769;42.660;23.262;2023-05-21T11:29:35;93694.16;;;24.22;39.48
9462;BME280;4769;42.660;23.262;2023-05-21T11:32:01;93684.41;;;25.14;36.37
9462;BME280;4769;42.660;23.262;2023-05-21T11:34:38;93679.38;;;25.79;34.54
9462;BME280;4769;42.660;23.262;2023-05-21T11:37:22;93673.91;;;25.91;35.21
9462;BME280;4769;42.660;23.262;2023-05-21T11:39:49;93675.50;;;25.65;35.10
9462;BME280;4769;42.660;23.262;2023-05-21T11:42:26;93671.78;;;25.30;37.58
9462;BME280;4769;42.660;23.262;2023-05-21T11:44:54;93669.59;;;25.08;39.19
9462;BME280;4769;42.660;23.262;2023-05-21T11:47:20;93669.13;;;25.06;40.38
9462;BME280;4769;42.660;23.262;2023-05-21T11:49:48;93668.03;;;24.59;37.60
9462;BME280;4769;42.660;23.262;2023-05-21T11:52:14;93670.31;;;24.12;38.41
9462;BME280;4769;42.660;23.262;2023-05-21T11:54:43;93670.63;;;23.99;38.92
9462;BME280;4769;42.660;23.262;2023-05-21T11:57:09;93677.69;;;23.91;39.26
9462;BME280;4769;42.660;23.262;2023-05-21T11:59:35;93677.09;;;23.85;40.18
9462;BME280;4769;42.660;23.262;2023-05-21T12:02:01;93671.88;;;23.68;39.80
9462;BME280;4769;42.660;23.262;2023-05-21T12:04:28;93659.94;;;23.57;39.95
9462;BME280;4769;42.660;23.262;2023-05-21T12:06:57;93666.66;;;23.51;40.28
9462;BME280;4769;42.660;23.262;2023-05-21T12:09:23;93664.16;;;23.46;40.59
9462;BME280;4769;42.660;23.262;2023-05-21T12:11:49;93661.78;;;23.33;40.88
9462;BME280;4769;42.660;23.262;2023-05-21T12:14:15;93658.38;;;23.24;41.48
9462;BME280;4769;42.660;23.262;2023-05-21T12:16:41;93652.63;;;23.05;43.55
9462;BME280;4769;42.660;23.262;2023-05-21T12:19:07;93657.59;;;22.94;44.74
9462;BME280;4769;42.660;23.262;2023-05-21T12:21:34;93655.34;;;22.76;45.53
9462;BME280;4769;42.660;23.262;2023-05-21T12:24:03;93655.84;;;22.69;45.36
9462;BME280;4769;42.660;23.262;2023-05-21T12:26:29;93663.81;;;22.28;44.91
9462;BME280;4769;42.660;23.262;2023-05-21T12:28:55;93652.72;;;22.30;44.71
9462;BME280;4769;42.660;23.262;2023-05-21T12:31:22;93649.13;;;22.26;44.92
9462;BME280;4769;42.660;23.262;2023-05-21T12:33:48;93652.09;;;22.33;45.29
9462;BME280;4769;42.660;23.262;2023-05-21T12:36:20;93656.66;;;22.32;45.82
9462;BME280;4769;42.660;23.262;2023-05-21T12:38:46;93654.63;;;22.29;46.35
9462;BME280;4769;42.660;23.262;2023-05-21T12:41:15;93649.25;;;22.29;46.55
9462;BME280;4769;42.660;23.262;2023-05-21T12:43:41;93642.78;;;22.30;47.45
9462;BME280;4769;42.660;23.262;2023-05-21T12:46:07;93650.00;;;22.38;47.24
9462;BME280;4769;42.660;23.262;2023-05-21T12:48:33;93641.63;;;22.40;47.34
9462;BME280;4769;42.660;23.262;2023-05-21T12:50:58;93643.28;;;22.24;47.73
9462;BME280;4769;42.660;23.262;2023-05-21T12:53:24;93645.53;;;22.13;47.98
9462;BME280;4769;42.660;23.262;2023-05-21T12:56:07;93636.03;;;22.16;48.49
9462;BME280;4769;42.660;23.262;2023-05-21T12:58:35;93644.66;;;22.30;47.79
9462;BME280;4769;42.660;23.262;2023-05-21T13:01:01;93643.88;;;22.29;48.58
9462;BME280;4769;42.660;23.262;2023-05-21T13:03:27;93638.00;;;22.36;48.57
9462;BME280;4769;42.660;23.262;2023-05-21T13:05:57;93631.47;;;22.16;48.30
9462;BME280;4769;42.660;23.262;2023-05-21T13:08:23;93643.59;;;22.22;48.72
9462;BME280;4769;42.660;23.262;2023-05-21T13:10:49;93641.06;;;22.26;49.27